Time;durP1;ratioP1;P1;durP2;ratioP2;P2;SDS_P1;SDS_P2;PMS_P1;PMS_P2;Temp;Humidity;BMP_temperature;BMP_pressure;BME280_temperature;BME280_humidity;BME280_pressure;Samples;Min_cycle;Max_cycle;Signal;HPM_P1;HPM_P2
2023/06/11 00:01:15;;;;;;;6.20;5.60;;;22.30;96.90;;;;;;5066402;28;20032;-54
2023/06/11 00:03:41;;;;;;;6.03;5.43;;;22.30;97.10;;;;;;5041593;28;20021;-52
2023/06/11 00:06:07;;;;;;;7.10;6.28;;;22.30;97.40;;;;;;5065342;28;20467;-54
2023/06/11 00:08:33;;;;;;;7.32;5.75;;;22.30;97.60;;;;;;5061471;28;20028;-52
2023/06/11 00:10:59;;;;;;;7.03;6.43;;;22.30;97.70;;;;;;5066685;28;20024;-52
2023/06/11 00:13:27;;;;;;;8.27;6.53;;;22.30;97.90;;;;;;5055941;28;20104;-53
2023/06/11 00:15:53;;;;;;;9.15;6.30;;;22.20;97.80;;;;;;5062816;28;20032;-51
2023/06/11 00:18:19;;;;;;;9.30;5.93;;;22.20;98.00;;;;;;5065140;28;20067;-53
2023/06/11 00:20:46;;;;;;;7.88;5.63;;;22.20;97.90;;;;;;5059421;28;20057;-53
2023/06/11 00:23:11;;;;;;;;;;;22.20;98.20;;;;;;5070341;28;20039;-55
2023/06/11 00:25:37;;;;;;;6.97;5.95;;;22.20;95.70;;;;;;5060471;28;19908;-53
2023/06/11 00:28:03;;;;;;;11.60;8.13;;;22.20;97.80;;;;;;5054097;28;20519;-53
2023/06/11 00:30:29;;;;;;;8.23;7.43;;;22.20;98.20;;;;;;5057330;28;20028;-55
2023/06/11 00:32:55;;;;;;;9.48;6.50;;;22.20;98.40;;;;;;5058809;28;20438;-56
2023/06/11 00:35:21;;;;;;;7.40;6.57;;;22.20;98.00;;;;;;5062454;28;20037;-54
2023/06/11 00:37:49;;;;;;;7.55;6.75;;;22.10;97.90;;;;;;5066148;28;20029;-56
2023/06/11 00:40:16;;;;;;;6.82;6.18;;;22.10;98.10;;;;;;5061342;28;20036;-53
2023/06/11 00:42:43;;;;;;;8.43;7.03;;;22.10;98.10;;;;;;5058561;28;20284;-55
2023/06/11 00:45:09;;;;;;;7.80;6.93;;;22.10;98.40;;;;;;5061010;28;20048;-55
2023/06/11 00:47:36;;;;;;;7.10;6.43;;;22.10;98.50;;;;;;5071792;28;20427;-53
2023/06/11 00:50:07;;;;;;;7.97;6.35;;;22.10;98.30;;;;;;5064045;28;20028;-55
2023/06/11 00:52:33;;;;;;;6.53;5.50;;;22.10;98.30;;;;;;5066121;28;20544;-52
2023/06/11 00:54:59;;;;;;;7.57;5.93;;;22.00;98.10;;;;;;5063836;28;20025;-51
2023/06/11 00:57:25;;;;;;;7.13;5.53;;;22.00;98.20;;;;;;5067635;28;20024;-54
2023/06/11 00:59:53;;;;;;;7.78;5.35;;;22.00;98.10;;;;;;5036794;28;20499;-57
2023/06/11 01:02:33;;;;;;;5.30;4.72;;;21.90;98.40;;;;;;5059934;28;20028;-52
2023/06/11 01:05:01;;;;;;;5.70;4.50;;;21.90;98.40;;;;;;5059017;28;20020;-52
2023/06/11 01:07:33;;;;;;;7.57;4.72;;;21.80;98.60;;;;;;5054699;28;20070;-53
2023/06/11 01:10:03;;;;;;;9.23;6.05;;;21.90;98.30;;;;;;5064150;28;20044;-52
2023/06/11 01:12:32;;;;;;;5.32;4.78;;;21.80;98.40;;;;;;5059086;28;20033;-54
2023/06/11 01:14:58;;;;;;;5.43;4.93;;;21.80;98.70;;;;;;5059821;28;20036;-57
2023/06/11 01:18:00;;;;;;;5.40;4.87;;;21.80;98.70;;;;;;5037367;28;20025;-53
2023/06/11 01:20:35;;;;;;;5.75;4.97;;;21.80;97.30;;;;;;5060203;28;20025;-56
2023/06/11 01:23:21;;;;;;;5.95;5.22;;;21.70;98.00;;;;;;5067061;28;20066;-56
2023/06/11 01:26:29;;;;;;;5.40;4.90;;;21.70;98.40;;;;;;5051460;28;20032;-54
2023/06/11 01:28:59;;;;;;;6.13;5.10;;;21.70;98.40;;;;;;5063536;28;20552;-54
2023/06/11 01:31:29;;;;;;;5.32;4.80;;;21.60;98.80;;;;;;5061205;28;20060;-56
2023/06/11 01:33:57;;;;;;;5.53;4.88;;;21.60;98.80;;;;;;5071218;28;20028;-55
2023/06/11 01:36:37;;;;;;;8.68;5.13;;;21.60;99.10;;;;;;5053365;28;20056;-54
2023/06/11 01:39:06;;;;;;;5.68;5.13;;;21.50;99.30;;;;;;5051196;28;20056;-53
2023/06/11 01:41:44;;;;;;;;;;;21.40;99.30;;;;;;5051406;28;20048;-55
2023/06/11 01:44:14;;;;;;;6.95;5.53;;;21.40;97.80;;;;;;5051290;28;19992;-56
2023/06/11 01:46:39;;;;;;;6.78;5.97;;;21.40;99.00;;;;;;5035754;28;20470;-53
2023/06/11 01:49:06;;;;;;;7.32;5.57;;;21.30;99.40;;;;;;5070936;28;20024;-58
2023/06/11 01:51:32;;;;;;;9.80;6.00;;;21.30;99.50;;;;;;5070490;28;20548;-53
2023/06/11 01:53:57;;;;;;;7.30;5.72;;;21.30;99.50;;;;;;5070487;28;20064;-58
2023/06/11 01:56:23;;;;;;;8.63;6.30;;;21.30;99.50;;;;;;5070574;28;20462;-56
2023/06/11 01:58:49;;;;;;;6.82;6.13;;;21.30;99.70;;;;;;5070762;28;20403;-58
2023/06/11 02:01:15;;;;;;;7.13;6.50;;;21.30;99.70;;;;;;5055857;28;20060;-57
2023/06/11 02:03:41;;;;;;;9.63;5.93;;;21.20;99.90;;;;;;5066081;28;20032;-54
2023/06/11 02:06:08;;;;;;;7.57;6.03;;;21.20;99.90;;;;;;5066574;28;20120;-56
2023/06/11 02:08:34;;;;;;;7.50;6.15;;;21.20;99.90;;;;;;5062353;28;20029;-55
2023/06/11 02:11:01;;;;;;;9.45;6.65;;;21.10;99.90;;;;;;5067259;28;20068;-57
2023/06/11 02:13:30;;;;;;;7.15;6.32;;;21.00;99.90;;;;;;5057830;28;20510;-57
2023/06/11 02:15:58;;;;;;;9.27;6.97;;;21.00;99.90;;;;;;5068643;28;20024;-55
2023/06/11 02:18:24;;;;;;;9.02;6.60;;;20.90;99.90;;;;;;5060557;28;20376;-53
2023/06/11 02:20:50;;;;;;;12.30;7.10;;;20.90;99.90;;;;;;5053763;28;20040;-57
2023/06/11 02:23:17;;;;;;;11.40;7.57;;;20.80;99.90;;;;;;5049694;28;20036;-54
2023/06/11 02:25:43;;;;;;;12.27;7.88;;;20.70;99.90;;;;;;5058274;28;20383;-53
2023/06/11 02:28:10;;;;;;;9.90;7.80;;;20.60;99.90;;;;;;5057521;28;20043;-55
2023/06/11 02:30:36;;;;;;;10.13;8.13;;;20.50;99.90;;;;;;5063513;28;20494;-56
2023/06/11 02:33:04;;;;;;;11.48;8.52;;;20.50;99.90;;;;;;5065510;28;20025;-57
2023/06/11 02:35:31;;;;;;;;;;;20.40;99.90;;;;;;5044335;28;20495;-57
2023/06/11 02:37:56;;;;;;;12.10;8.48;;;20.40;99.90;;;;;;5058964;28;19961;-55
2023/06/11 02:40:22;;;;;;;18.20;8.35;;;20.30;99.90;;;;;;5071469;28;20025;-57
2023/06/11 02:42:48;;;;;;;8.90;7.93;;;20.30;99.90;;;;;;5057695;28;20026;-57
2023/06/11 02:45:14;;;;;;;14.18;8.25;;;20.30;99.90;;;;;;5050117;28;20053;-57
2023/06/11 02:47:40;;;;;;;10.55;9.45;;;20.20;99.90;;;;;;5033736;28;20029;-55
2023/06/11 02:50:07;;;;;;;11.65;9.35;;;20.20;99.90;;;;;;5051269;28;20087;-59
2023/06/11 02:52:32;;;;;;;10.00;8.67;;;20.10;99.90;;;;;;5051131;28;20173;-57
2023/06/11 02:54:58;;;;;;;10.32;9.13;;;20.20;99.90;;;;;;5056139;28;20112;-57
2023/06/11 02:57:24;;;;;;;9.85;8.85;;;20.20;99.90;;;;;;5066204;28;20483;-55
2023/06/11 02:59:50;;;;;;;14.88;10.70;;;20.00;99.90;;;;;;5051134;28;20025;-52
2023/06/11 03:02:16;;;;;;;13.75;9.55;;;20.00;99.90;;;;;;5063485;28;20478;-55
2023/06/11 03:04:42;;;;;;;12.38;10.73;;;20.10;99.90;;;;;;5044276;28;20024;-57
2023/06/11 03:07:08;;;;;;;14.23;11.52;;;19.90;99.90;;;;;;5066833;28;20024;-55
2023/06/11 03:09:34;;;;;;;12.52;11.25;;;19.90;99.90;;;;;;5057665;28;20028;-58
2023/06/11 03:12:00;;;;;;;11.90;10.80;;;19.80;99.90;;;;;;5062723;28;20031;-57
2023/06/11 03:14:26;;;;;;;15.90;10.30;;;19.80;99.90;;;;;;5064424;28;20029;-55
2023/06/11 03:16:52;;;;;;;15.82;11.20;;;19.90;99.90;;;;;;5060584;28;20028;-55
2023/06/11 03:19:18;;;;;;;12.50;11.25;;;19.90;99.90;;;;;;5057257;28;20047;-58
2023/06/11 03:21:45;;;;;;;14.40;10.57;;;19.90;99.90;;;;;;5069197;28;20025;-58
2023/06/11 03:24:12;;;;;;;12.68;11.15;;;19.90;99.90;;;;;;5057002;28;20026;-56
2023/06/11 03:26:38;;;;;;;14.50;12.13;;;19.90;99.90;;;;;;5065139;28;20021;-55
2023/06/11 03:29:04;;;;;;;12.70;10.25;;;19.90;99.90;;;;;;5060325;28;20025;-56
2023/06/11 03:31:37;;;;;;;15.85;10.10;;;19.90;99.90;;;;;;5065687;28;20478;-55
2023/06/11 03:34:03;;;;;;;13.27;10.70;;;19.80;99.90;;;;;;5057150;28;20443;-56
2023/06/11 03:36:29;;;;;;;;;;;19.80;99.90;;;;;;5045823;28;20028;-58
2023/06/11 03:38:57;;;;;;;14.50;10.10;;;19.80;99.90;;;;;;5065429;28;19919;-58
2023/06/11 03:41:23;;;;;;;16.05;10.88;;;19.90;99.90;;;;;;5069254;28;20297;-54
2023/06/11 03:43:48;;;;;;;13.50;10.43;;;19.90;99.90;;;;;;5057912;28;20032;-55
2023/06/11 03:46:14;;;;;;;10.73;9.73;;;19.90;99.90;;;;;;5071572;28;20162;-53
2023/06/11 03:48:40;;;;;;;17.80;10.52;;;19.90;99.90;;;;;;5061886;28;20029;-55
2023/06/11 03:51:06;;;;;;;17.92;11.38;;;19.90;99.90;;;;;;5055071;28;20082;-55
2023/06/11 03:53:32;;;;;;;15.45;12.10;;;19.90;99.90;;;;;;5056187;28;20033;-55
2023/06/11 03:55:58;;;;;;;15.00;10.80;;;20.00;99.90;;;;;;5055413;28;20109;-54
2023/06/11 03:58:25;;;;;;;11.60;10.23;;;20.00;99.90;;;;;;5057530;28;20586;-56
2023/06/11 04:00:51;;;;;;;12.17;9.73;;;20.00;99.90;;;;;;5072209;28;20784;-56
2023/06/11 04:03:17;;;;;;;12.77;11.45;;;20.00;99.90;;;;;;5073127;28;20107;-55
2023/06/11 04:05:43;;;;;;;11.65;9.48;;;20.00;99.90;;;;;;5053615;28;20523;-54
2023/06/11 04:08:09;;;;;;;11.20;9.43;;;20.00;99.90;;;;;;5052878;28;20051;-55
2023/06/11 04:10:36;;;;;;;14.38;11.15;;;20.00;99.90;;;;;;5052736;28;20290;-57
2023/06/11 04:13:02;;;;;;;11.88;10.65;;;20.00;99.90;;;;;;5052873;28;20067;-55
2023/06/11 04:15:28;;;;;;;12.57;11.27;;;20.10;99.90;;;;;;5051831;28;20056;-56
2023/06/11 04:17:56;;;;;;;11.27;9.77;;;20.10;99.90;;;;;;5072103;28;20158;-59
2023/06/11 04:20:22;;;;;;;12.05;10.75;;;20.20;99.90;;;;;;5056034;28;20508;-55
2023/06/11 04:22:48;;;;;;;12.65;10.40;;;20.10;99.90;;;;;;5072513;28;20556;-55
2023/06/11 04:25:16;;;;;;;13.40;10.30;;;20.20;99.90;;;;;;5072404;28;20111;-56
2023/06/11 04:27:43;;;;;;;11.80;10.68;;;20.20;99.90;;;;;;5072595;28;20255;-55
2023/06/11 04:30:12;;;;;;;12.07;10.77;;;20.20;99.90;;;;;;5072551;28;20154;-58
2023/06/11 04:32:41;;;;;;;17.00;11.00;;;20.20;99.90;;;;;;5061891;28;20029;-56
2023/06/11 04:35:08;;;;;;;15.23;10.88;;;20.20;99.90;;;;;;5065713;28;20422;-54
2023/06/11 04:37:40;;;;;;;12.68;10.85;;;20.30;99.90;;;;;;5062688;28;20028;-53
2023/06/11 04:40:11;;;;;;;13.13;11.82;;;20.30;99.90;;;;;;5054175;28;20025;-57
2023/06/11 04:42:41;;;;;;;12.90;11.60;;;20.30;99.90;;;;;;5056287;28;20036;-51
2023/06/11 04:45:09;;;;;;;12.20;10.32;;;20.30;99.90;;;;;;5059471;28;20107;-56
2023/06/11 04:47:37;;;;;;;37.58;34.15;;;20.40;99.90;;;;;;5051895;28;20071;-55
2023/06/11 04:50:04;;;;;;;11.45;10.07;;;20.40;99.90;;;;;;5052186;28;20028;-57
2023/06/11 04:52:32;;;;;;;14.88;10.80;;;20.40;99.90;;;;;;5066820;28;20033;-56
2023/06/11 04:55:00;;;;;;;19.75;11.23;;;20.40;99.90;;;;;;5060975;28;20036;-56
2023/06/11 04:57:26;;;;;;;16.98;12.15;;;20.40;99.90;;;;;;5037471;28;20356;-55
2023/06/11 04:59:53;;;;;;;14.48;11.85;;;20.40;99.90;;;;;;5070879;28;20086;-55
2023/06/11 05:02:21;;;;;;;16.52;11.55;;;20.40;99.90;;;;;;5066669;28;20522;-54
2023/06/11 05:04:53;;;;;;;19.38;12.30;;;20.40;99.90;;;;;;5061716;28;20499;-63
2023/06/11 05:07:20;;;;;;;17.52;11.80;;;20.40;99.90;;;;;;5060681;28;20400;-58
2023/06/11 05:09:46;;;;;;;15.48;12.23;;;20.40;99.90;;;;;;5066426;28;20017;-55
2023/06/11 05:12:12;;;;;;;14.00;12.05;;;20.50;99.90;;;;;;5068316;28;20079;-57
2023/06/11 05:14:39;;;;;;;13.35;11.85;;;20.50;99.90;;;;;;5062244;28;20179;-56
2023/06/11 05:17:05;;;;;;;20.38;11.85;;;20.60;99.90;;;;;;5054013;28;20497;-57
2023/06/11 05:19:31;;;;;;;16.75;12.25;;;20.60;99.90;;;;;;5069677;28;20040;-58
2023/06/11 05:21:58;;;;;;;21.10;13.75;;;20.70;99.90;;;;;;5050096;28;20175;-55
2023/06/11 05:24:28;;;;;;;;;;;20.70;99.90;;;;;;5062249;28;20036;-57
2023/06/11 05:26:56;;;;;;;19.08;14.52;;;20.70;99.90;;;;;;5069972;28;19944;-52
2023/06/11 05:29:24;;;;;;;16.25;13.82;;;20.80;99.90;;;;;;5056631;28;20129;-55
2023/06/11 05:31:50;;;;;;;18.77;14.95;;;20.80;99.90;;;;;;5056005;28;20056;-56
2023/06/11 05:34:17;;;;;;;21.00;15.13;;;20.80;99.90;;;;;;5065715;28;20029;-57
2023/06/11 05:36:45;;;;;;;16.83;15.02;;;20.90;99.90;;;;;;5059816;28;20275;-59
2023/06/11 05:39:13;;;;;;;18.20;15.90;;;20.90;99.90;;;;;;5059034;28;20561;-55
2023/06/11 05:41:40;;;;;;;45.83;19.65;;;21.00;99.90;;;;;;5066755;28;20025;-56
2023/06/11 05:44:07;;;;;;;17.90;14.73;;;21.00;99.90;;;;;;5065641;28;20032;-58
2023/06/11 05:46:33;;;;;;;17.10;15.45;;;21.00;99.90;;;;;;5055280;28;20029;-56
2023/06/11 05:49:00;;;;;;;18.00;16.15;;;21.00;99.90;;;;;;5060839;28;20027;-57
2023/06/11 05:51:27;;;;;;;16.05;14.45;;;21.10;99.90;;;;;;5053737;28;20131;-56
2023/06/11 05:53:53;;;;;;;13.05;11.75;;;21.10;99.90;;;;;;5065340;28;20044;-57
2023/06/11 05:56:21;;;;;;;17.75;12.05;;;21.10;99.90;;;;;;5052350;28;20115;-56
2023/06/11 05:58:48;;;;;;;14.38;10.32;;;21.20;99.90;;;;;;5061305;28;20028;-55
2023/06/11 06:01:15;;;;;;;13.82;10.52;;;21.20;99.90;;;;;;5053168;28;20127;-55
2023/06/11 06:03:41;;;;;;;;;;;21.30;99.90;;;;;;5067173;28;20545;-58
2023/06/11 06:06:08;;;;;;;12.73;11.43;;;21.30;99.90;;;;;;5037934;28;20092;-58
2023/06/11 06:08:35;;;;;;;14.50;11.23;;;21.40;99.90;;;;;;5066634;28;20063;-55
2023/06/11 06:11:01;;;;;;;13.40;11.98;;;21.40;99.90;;;;;;5052207;28;20051;-56
2023/06/11 06:13:27;;;;;;;16.97;12.37;;;21.40;99.90;;;;;;5068625;28;20044;-57
2023/06/11 06:15:57;;;;;;;11.65;10.52;;;21.50;99.90;;;;;;5056406;28;20305;-55
2023/06/11 06:18:27;;;;;;;13.02;9.63;;;21.60;99.90;;;;;;5053909;28;20036;-55
2023/06/11 06:20:53;;;;;;;10.98;9.00;;;21.60;99.90;;;;;;5059816;28;20099;-57
2023/06/11 06:23:21;;;;;;;11.80;9.80;;;21.60;99.90;;;;;;5069082;28;20035;-58
2023/06/11 06:26:07;;;;;;;8.75;7.85;;;21.70;99.90;;;;;;5051800;28;20029;-58
2023/06/11 06:28:35;;;;;;;9.25;7.78;;;21.70;99.90;;;;;;5056798;28;20024;-58
2023/06/11 06:31:02;;;;;;;9.52;8.55;;;21.70;98.90;;;;;;5061551;28;20082;-56
2023/06/11 06:33:34;;;;;;;6.97;6.28;;;21.80;99.60;;;;;;5055825;28;20565;-58
2023/06/11 06:36:02;;;;;;;7.45;6.68;;;21.80;98.40;;;;;;5066213;28;20079;-58
2023/06/11 06:38:28;;;;;;;9.00;6.28;;;21.80;98.50;;;;;;5063721;28;20060;-57
2023/06/11 06:40:54;;;;;;;7.60;6.63;;;21.90;98.40;;;;;;5060648;28;20070;-51
2023/06/11 06:43:20;;;;;;;8.17;7.33;;;21.90;98.40;;;;;;5062244;28;20021;-50
2023/06/11 06:45:53;;;;;;;8.82;6.85;;;22.00;98.50;;;;;;5054167;28;20029;-53
2023/06/11 06:48:25;;;;;;;8.73;6.38;;;22.00;97.90;;;;;;5068291;28;20029;-50
2023/06/11 06:50:52;;;;;;;8.23;7.43;;;22.00;97.00;;;;;;5060456;28;20033;-50
2023/06/11 06:53:18;;;;;;;11.52;7.65;;;22.10;97.60;;;;;;5037337;28;20091;-52
2023/06/11 06:55:45;;;;;;;;;;;22.10;98.20;;;;;;5066152;28;20033;-53
2023/06/11 06:58:11;;;;;;;9.00;7.40;;;22.10;98.90;;;;;;5053648;28;19915;-57
2023/06/11 07:00:37;;;;;;;9.30;7.60;;;22.10;98.50;;;;;;5062528;28;20060;-56
2023/06/11 07:03:03;;;;;;;8.50;7.65;;;22.20;97.70;;;;;;5062022;28;20048;-57
2023/06/11 07:05:29;;;;;;;15.00;7.70;;;22.20;96.90;;;;;;5058031;28;20075;-53
2023/06/11 07:07:55;;;;;;;10.57;7.77;;;22.30;97.20;;;;;;5062080;28;20021;-52
2023/06/11 07:10:21;;;;;;;;;;;22.30;97.90;;;;;;5051811;28;20021;-57
2023/06/11 07:12:49;;;;;;;7.95;6.50;;;22.40;97.00;;;;;;5034281;28;19948;-54
2023/06/11 07:15:15;;;;;;;8.87;6.90;;;22.40;96.70;;;;;;5049724;28;20040;-51
2023/06/11 07:17:42;;;;;;;9.77;7.68;;;22.40;95.80;;;;;;5053366;28;20069;-54
2023/06/11 07:20:09;;;;;;;9.40;7.10;;;22.50;96.00;;;;;;5069911;28;20123;-54
2023/06/11 07:22:35;;;;;;;9.65;6.93;;;22.50;96.50;;;;;;5069815;28;20489;-54
2023/06/11 07:25:02;;;;;;;8.15;6.43;;;22.60;96.70;;;;;;5069622;28;20407;-53
2023/06/11 07:27:28;;;;;;;8.20;7.07;;;22.70;96.40;;;;;;5069937;28;20024;-54
2023/06/11 07:29:54;;;;;;;11.67;8.47;;;22.70;96.20;;;;;;5069073;28;20605;-51
2023/06/11 07:32:20;;;;;;;10.63;7.78;;;22.80;95.90;;;;;;5050285;28;20033;-53
2023/06/11 07:34:46;;;;;;;10.37;8.77;;;22.80;95.80;;;;;;5066145;28;20032;-57
2023/06/11 07:37:12;;;;;;;9.40;7.57;;;22.90;95.50;;;;;;5051174;28;20059;-51
2023/06/11 07:39:38;;;;;;;8.80;7.90;;;23.00;95.00;;;;;;5051037;28;20029;-56
2023/06/11 07:42:05;;;;;;;8.47;7.57;;;23.00;95.10;;;;;;5049559;28;20025;-54
2023/06/11 07:44:31;;;;;;;9.20;8.38;;;23.00;95.70;;;;;;5049646;28;20037;-57
2023/06/11 07:46:57;;;;;;;11.27;7.47;;;23.10;95.50;;;;;;5050841;28;20024;-54
2023/06/11 07:49:23;;;;;;;9.10;7.50;;;23.20;94.90;;;;;;5051427;28;20033;-56
2023/06/11 07:51:49;;;;;;;8.90;7.38;;;23.20;94.70;;;;;;5039845;28;20123;-57
2023/06/11 07:54:16;;;;;;;8.10;7.28;;;23.30;94.20;;;;;;5067736;28;20499;-51
2023/06/11 07:56:42;;;;;;;10.60;7.00;;;23.40;94.00;;;;;;5054160;28;20037;-57
2023/06/11 07:59:08;;;;;;;10.97;7.73;;;23.40;93.70;;;;;;5054398;28;20369;-55
2023/06/11 08:01:34;;;;;;;8.30;7.07;;;23.40;93.50;;;;;;5080626;22;20056;-47
2023/06/11 08:04:00;;;;;;;8.87;7.07;;;23.50;93.00;;;;;;5074228;28;20039;-47
2023/06/11 08:06:26;;;;;;;9.03;7.93;;;23.50;92.90;;;;;;5055868;28;20406;-47
2023/06/11 08:08:52;;;;;;;9.65;8.23;;;23.50;92.30;;;;;;5074143;28;20017;-49
2023/06/11 08:11:18;;;;;;;12.70;7.93;;;23.50;92.50;;;;;;5056175;28;20025;-47
2023/06/11 08:13:44;;;;;;;8.47;7.67;;;23.60;93.40;;;;;;5056291;28;20055;-47
2023/06/11 08:16:09;;;;;;;8.63;7.83;;;23.70;92.80;;;;;;5073837;28;20103;-47
2023/06/11 08:18:35;;;;;;;8.40;7.50;;;23.70;92.40;;;;;;5039488;28;20040;-52
2023/06/11 08:21:02;;;;;;;10.77;8.47;;;23.70;92.60;;;;;;5074067;28;20111;-49
2023/06/11 08:23:28;;;;;;;;;;;23.80;93.00;;;;;;5074429;28;20117;-47
2023/06/11 08:25:58;;;;;;;8.32;7.30;;;23.80;90.50;;;;;;5089686;28;19904;-47
2023/06/11 08:28:26;;;;;;;10.63;8.60;;;23.80;91.80;;;;;;5073958;28;20033;-47
2023/06/11 08:30:52;;;;;;;11.27;8.70;;;23.90;92.20;;;;;;5055782;28;20255;-47
2023/06/11 08:33:18;;;;;;;9.37;8.47;;;24.00;92.60;;;;;;5073721;28;20028;-48
2023/06/11 08:35:44;;;;;;;10.30;9.00;;;24.10;91.50;;;;;;5073574;28;20040;-47
2023/06/11 08:38:11;;;;;;;10.33;8.60;;;24.10;91.20;;;;;;5073706;28;20024;-48
2023/06/11 08:40:39;;;;;;;;;;;24.20;91.50;;;;;;5055997;28;20062;-48
2023/06/11 08:43:04;;;;;;;10.60;8.00;;;24.30;90.00;;;;;;5073662;28;20318;-47
2023/06/11 08:45:30;;;;;;;8.47;7.17;;;24.20;88.80;;;;;;5055425;28;20522;-47
2023/06/11 08:47:59;;;;;;;10.87;7.57;;;24.30;89.70;;;;;;5073527;28;20066;-50
2023/06/11 08:50:25;;;;;;;11.73;8.43;;;24.30;89.10;;;;;;5073406;28;20024;-52
2023/06/11 08:52:51;;;;;;;12.35;9.63;;;24.40;89.60;;;;;;5055473;28;20069;-47
2023/06/11 08:55:18;;;;;;;9.32;8.52;;;24.50;88.40;;;;;;5073203;28;20032;-47
2023/06/11 08:57:43;;;;;;;10.60;9.52;;;24.50;88.70;;;;;;5055402;28;20035;-51
2023/06/11 09:00:10;;;;;;;12.17;9.60;;;24.50;86.40;;;;;;5073098;28;20107;-48
2023/06/11 09:02:36;;;;;;;11.80;8.60;;;24.50;85.50;;;;;;5072771;28;20028;-47
2023/06/11 09:05:03;;;;;;;10.73;8.80;;;24.50;86.50;;;;;;5072957;28;20021;-48
2023/06/11 09:07:29;;;;;;;8.93;7.63;;;24.60;86.90;;;;;;5073081;28;20103;-48
2023/06/11 09:10:08;;;;;;;9.13;7.97;;;24.70;86.60;;;;;;5073140;28;20104;-47
2023/06/11 09:12:34;;;;;;;8.73;7.75;;;24.80;85.70;;;;;;5072851;28;20044;-48
2023/06/11 09:15:00;;;;;;;9.10;7.97;;;24.90;87.50;;;;;;5072740;28;20031;-49
2023/06/11 09:17:40;;;;;;;10.47;9.07;;;25.00;86.50;;;;;;5072805;28;20032;-47
2023/06/11 09:20:09;;;;;;;8.88;7.75;;;25.10;83.10;;;;;;5055083;28;20516;-47
2023/06/11 09:22:37;;;;;;;9.73;8.73;;;25.20;83.50;;;;;;5072703;28;20078;-47
2023/06/11 09:25:09;;;;;;;10.27;8.32;;;25.20;82.70;;;;;;5054673;28;20095;-49
2023/06/11 09:27:36;;;;;;;11.48;8.90;;;25.20;81.70;;;;;;5072697;28;20031;-47
2023/06/11 09:30:15;;;;;;;9.35;7.30;;;25.20;81.10;;;;;;5054624;28;20094;-48
2023/06/11 09:32:43;;;;;;;9.38;8.10;;;25.30;81.50;;;;;;5055073;28;20383;-48
2023/06/11 09:35:10;;;;;;;9.30;8.30;;;25.40;80.40;;;;;;5054735;28;20032;-49
2023/06/11 09:37:52;;;;;;;10.88;7.88;;;25.50;79.80;;;;;;5072447;28;20502;-47
2023/06/11 09:40:20;;;;;;;9.07;8.18;;;25.60;79.20;;;;;;5072463;28;20028;-49
2023/06/11 09:42:48;;;;;;;7.90;6.60;;;25.60;77.20;;;;;;5072231;28;20042;-49
2023/06/11 09:45:16;;;;;;;9.95;7.97;;;25.70;76.20;;;;;;5072141;28;20491;-47
2023/06/11 09:47:44;;;;;;;11.90;8.38;;;25.70;74.50;;;;;;5072350;28;20490;-47
2023/06/11 09:50:16;;;;;;;9.30;7.85;;;25.60;74.50;;;;;;5054333;28;20028;-51
2023/06/11 09:52:43;;;;;;;7.18;6.47;;;25.60;75.90;;;;;;5072157;28;20481;-47
2023/06/11 09:55:10;;;;;;;7.43;6.72;;;25.70;75.10;;;;;;5037412;28;20033;-48
2023/06/11 09:57:40;;;;;;;7.90;6.43;;;25.80;74.60;;;;;;5072168;28;20427;-47
2023/06/11 10:00:09;;;;;;;8.82;7.60;;;25.90;72.10;;;;;;5072269;28;20024;-48
2023/06/11 10:02:37;;;;;;;9.48;8.05;;;26.00;72.50;;;;;;5053836;28;20123;-47
2023/06/11 10:05:06;;;;;;;9.38;8.20;;;26.10;72.90;;;;;;5071878;28;20024;-47
2023/06/11 10:07:50;;;;;;;9.23;8.32;;;26.10;71.50;;;;;;5071962;28;20089;-47
2023/06/11 10:10:21;;;;;;;10.43;9.43;;;26.20;73.30;;;;;;5054112;28;20032;-47
2023/06/11 10:12:51;;;;;;;10.27;9.27;;;26.30;73.80;;;;;;5071432;28;20119;-49
2023/06/11 10:15:18;;;;;;;13.85;9.30;;;26.30;72.60;;;;;;5053720;28;20040;-47
2023/06/11 10:17:49;;;;;;;10.98;8.23;;;26.20;72.20;;;;;;5054122;28;20029;-47
2023/06/11 10:20:20;;;;;;;12.32;9.25;;;26.20;71.30;;;;;;5071859;28;20101;-47
2023/06/11 10:22:46;;;;;;;10.05;8.75;;;26.20;72.10;;;;;;5071680;28;20029;-48
2023/06/11 10:25:13;;;;;;;8.77;7.97;;;26.20;72.80;;;;;;5053635;28;20065;-48
2023/06/11 10:27:41;;;;;;;7.75;5.72;;;26.30;72.80;;;;;;5053969;28;20096;-49
2023/06/11 10:30:08;;;;;;;5.50;4.93;;;26.40;71.20;;;;;;5071586;28;20399;-47
2023/06/11 10:32:34;;;;;;;5.90;5.40;;;26.50;70.90;;;;;;5053628;28;20071;-48
2023/06/11 10:35:06;;;;;;;8.13;7.32;;;26.60;71.60;;;;;;5052326;28;20497;-49
2023/06/11 10:37:35;;;;;;;8.32;7.53;;;26.70;69.90;;;;;;5071207;28;20032;-47
2023/06/11 10:40:02;;;;;;;7.53;6.30;;;26.70;68.60;;;;;;5073933;28;20028;-50
2023/06/11 10:42:34;;;;;;;8.32;7.53;;;26.70;68.30;;;;;;5065589;28;20494;-50
2023/06/11 10:45:00;;;;;;;7.75;6.97;;;26.70;68.60;;;;;;5066098;28;20100;-47
2023/06/11 10:47:28;;;;;;;8.90;7.83;;;26.80;69.20;;;;;;5070939;28;20628;-47
2023/06/11 10:50:26;;;;;;;8.63;7.80;;;26.90;69.90;;;;;;5071481;28;20019;-48
2023/06/11 10:52:55;;;;;;;9.52;7.10;;;27.00;66.90;;;;;;5044782;28;20040;-49
2023/06/11 10:55:22;;;;;;;8.35;6.47;;;27.00;67.20;;;;;;5068355;28;20111;-49
2023/06/11 10:57:52;;;;;;;8.15;6.60;;;27.00;70.30;;;;;;5070698;28;20036;-47
2023/06/11 11:00:19;;;;;;;7.82;7.03;;;27.20;67.30;;;;;;5069497;28;20067;-47
2023/06/11 11:02:46;;;;;;;9.38;6.65;;;27.30;66.90;;;;;;5070175;28;20037;-51
2023/06/11 11:05:12;;;;;;;8.60;6.57;;;27.40;65.80;;;;;;5086052;28;20170;-48
2023/06/11 11:07:38;;;;;;;7.07;5.67;;;27.50;66.80;;;;;;5052974;28;20120;-47
2023/06/11 11:10:05;;;;;;;8.75;7.88;;;27.70;65.80;;;;;;5052793;28;20538;-47
2023/06/11 11:12:37;;;;;;;9.10;7.57;;;27.90;64.90;;;;;;5048722;28;20285;-47
2023/06/11 11:15:04;;;;;;;6.95;6.25;;;27.90;63.70;;;;;;5070642;28;20033;-49
2023/06/11 11:17:30;;;;;;;8.93;6.20;;;27.90;63.80;;;;;;5071042;28;20021;-48
2023/06/11 11:19:57;;;;;;;5.47;4.95;;;28.00;62.50;;;;;;5070802;28;20067;-47
2023/06/11 11:22:26;;;;;;;5.05;4.28;;;28.00;63.60;;;;;;5070404;28;20032;-48
2023/06/11 11:24:53;;;;;;;5.93;4.68;;;28.30;62.10;;;;;;5069336;28;20016;-51
2023/06/11 11:27:22;;;;;;;5.43;4.93;;;28.20;59.50;;;;;;5074122;28;20390;-47
2023/06/11 11:29:50;;;;;;;4.93;3.85;;;28.20;59.60;;;;;;5073688;28;20046;-47
2023/06/11 11:32:16;;;;;;;5.55;4.95;;;28.20;58.10;;;;;;5074291;28;20028;-47
2023/06/11 11:34:44;;;;;;;5.28;4.78;;;28.20;58.00;;;;;;5073777;28;20060;-47
2023/06/11 11:37:09;;;;;;;6.40;5.80;;;28.40;61.70;;;;;;5074302;28;20028;-48
2023/06/11 11:39:36;;;;;;;7.30;6.60;;;28.60;63.10;;;;;;5071014;28;20024;-49
2023/06/11 11:42:02;;;;;;;;;;;28.70;59.50;;;;;;5052536;28;20082;-48
2023/06/11 11:44:39;;;;;;;5.18;4.68;;;28.50;57.40;;;;;;5073798;28;19912;-48
2023/06/11 11:47:07;;;;;;;;;;;28.40;57.00;;;;;;5056382;28;20451;-49
2023/06/11 11:49:34;;;;;;;6.57;5.88;;;28.50;57.60;;;;;;5039927;28;19908;-49
2023/06/11 11:52:00;;;;;;;5.95;4.53;;;28.40;56.90;;;;;;5055317;28;20032;-49
2023/06/11 11:54:26;;;;;;;6.00;5.10;;;28.50;59.60;;;;;;5070737;28;20406;-50
2023/06/11 11:57:08;;;;;;;8.02;5.03;;;28.70;58.80;;;;;;5073516;28;20198;-51
2023/06/11 11:59:38;;;;;;;8.15;6.55;;;28.80;57.80;;;;;;5071957;28;20029;-50
2023/06/11 12:02:04;;;;;;;9.10;7.60;;;28.90;59.30;;;;;;5051114;28;20035;-49
2023/06/11 12:04:36;;;;;;;8.35;7.15;;;28.90;57.70;;;;;;5056817;28;20123;-49
2023/06/11 12:07:07;;;;;;;8.35;6.45;;;28.90;58.10;;;;;;5038818;28;20474;-47
2023/06/11 12:09:34;;;;;;;6.38;5.30;;;28.90;58.60;;;;;;5071391;28;20028;-47
2023/06/11 12:12:01;;;;;;;9.75;6.38;;;29.10;61.80;;;;;;5055690;28;20273;-47
2023/06/11 12:14:26;;;;;;;9.50;8.55;;;29.20;58.60;;;;;;5071756;28;20448;-47
2023/06/11 12:16:52;;;;;;;9.00;8.10;;;29.20;58.20;;;;;;5073023;28;20339;-47
2023/06/11 12:19:19;;;;;;;7.70;6.95;;;29.20;57.60;;;;;;5064819;28;20582;-49
2023/06/11 12:21:45;;;;;;;9.38;6.40;;;29.30;59.00;;;;;;5051161;28;20112;-50
2023/06/11 12:24:15;;;;;;;;;;;29.40;60.20;;;;;;5073843;28;20497;-48
2023/06/11 12:26:48;;;;;;;8.23;6.55;;;29.50;57.30;;;;;;5088894;28;19944;-47
2023/06/11 12:29:14;;;;;;;7.38;5.50;;;29.50;57.40;;;;;;5073674;28;20090;-47
2023/06/11 12:31:40;;;;;;;5.55;4.95;;;29.60;56.80;;;;;;5073371;28;20032;-47
2023/06/11 12:34:08;;;;;;;9.00;8.13;;;29.80;58.00;;;;;;5073487;28;20029;-47
2023/06/11 12:36:34;;;;;;;8.60;7.38;;;30.00;57.70;;;;;;5072413;28;20039;-48
2023/06/11 12:39:02;;;;;;;;;;;30.10;57.70;;;;;;5072561;28;20020;-47
2023/06/11 12:41:28;;;;;;;8.98;6.53;;;30.10;56.00;;;;;;5054971;28;19965;-47
2023/06/11 12:43:54;;;;;;;8.60;7.70;;;30.20;58.40;;;;;;5088610;28;20107;-47
2023/06/11 12:46:19;;;;;;;6.63;6.03;;;30.40;59.00;;;;;;5072729;28;20021;-47